Kisii Airport


Codes: HKKS/
Name: Kisii Airport
City: Kisii
Country: Kenya
Elevation: 4905 ft.

Photos at Kisii Airport


   Photos courtesy of SpottingLog. You can add your own sightings and photos by signing up for a free trial today.



No photos found.

Weather at Kisii Airport


Time (UTC)DescriptionTempratureWindCloud coverageVisibilityPressureHumidity
25-Jun-2024 15:00Light Rain23°C4 mph, NW30%10000m1012hPa58%
25-Jun-2024 18:00Scattered Clouds18°C4 mph, E30%10000m1014hPa76%
25-Jun-2024 21:00Few Clouds14°C4 mph, SE18%10000m1017hPa86%
26-Jun-2024 00:00Scattered Clouds14°C4 mph, SE47%10000m1014hPa75%
26-Jun-2024 03:00Scattered Clouds14°C4 mph, SE50%10000m1015hPa69%
26-Jun-2024 06:00Broken Clouds19°C4 mph, SE59%10000m1016hPa56%
26-Jun-2024 09:00Scattered Clouds24°C2 mph, SW44%10000m1014hPa43%
26-Jun-2024 12:00Scattered Clouds23°C2 mph, W44%10000m1012hPa56%
26-Jun-2024 15:00Light Rain20°C0 mph, W79%10000m1013hPa77%
26-Jun-2024 18:00Overcast Clouds16°C4 mph, SE86%10000m1016hPa80%
26-Jun-2024 21:00Overcast Clouds16°C4 mph, SE98%10000m1016hPa73%
27-Jun-2024 00:00Overcast Clouds17°C4 mph, SE96%10000m1014hPa67%
27-Jun-2024 03:00Broken Clouds15°C7 mph, SE69%10000m1015hPa70%
27-Jun-2024 06:00Broken Clouds19°C7 mph, SE84%10000m1016hPa61%
27-Jun-2024 09:00Overcast Clouds25°C4 mph, SE93%10000m1014hPa43%
27-Jun-2024 12:00Overcast Clouds24°C2 mph, S92%10000m1011hPa51%
27-Jun-2024 15:00Overcast Clouds20°C2 mph, E100%10000m1013hPa66%
27-Jun-2024 18:00Overcast Clouds19°C4 mph, SE100%10000m1016hPa65%
27-Jun-2024 21:00Overcast Clouds17°C7 mph, SE100%10000m1016hPa67%
28-Jun-2024 00:00Overcast Clouds17°C7 mph, SE100%10000m1015hPa69%
28-Jun-2024 03:00Overcast Clouds17°C7 mph, E100%10000m1015hPa71%
28-Jun-2024 06:00Overcast Clouds19°C4 mph, E98%10000m1017hPa66%
28-Jun-2024 09:00Broken Clouds21°C2 mph, E82%10000m1015hPa58%
28-Jun-2024 12:00Overcast Clouds23°C0 mph, W91%10000m1012hPa53%
28-Jun-2024 15:00Light Rain18°C2 mph, E100%10000m1015hPa87%
28-Jun-2024 18:00Light Rain16°C4 mph, SE100%10000m1017hPa90%
28-Jun-2024 21:00Overcast Clouds16°C4 mph, SE100%10000m1017hPa86%
29-Jun-2024 00:00Overcast Clouds16°C2 mph, E100%10000m1016hPa81%
29-Jun-2024 03:00Overcast Clouds16°C2 mph, SE100%10000m1016hPa79%
29-Jun-2024 06:00Overcast Clouds17°C2 mph, E100%10000m1018hPa75%
29-Jun-2024 09:00Overcast Clouds20°C2 mph, SE100%10000m1016hPa64%
29-Jun-2024 12:00Overcast Clouds24°C4 mph, W99%10000m1013hPa52%
29-Jun-2024 15:00Light Rain20°C0 mph, NW98%10000m1014hPa76%
29-Jun-2024 18:00Light Rain17°C4 mph, E97%10000m1017hPa85%
29-Jun-2024 21:00Overcast Clouds15°C4 mph, SE90%10000m1017hPa88%
30-Jun-2024 00:00Overcast Clouds15°C4 mph, E91%10000m1015hPa88%
30-Jun-2024 03:00Overcast Clouds15°C4 mph, SE99%10000m1016hPa88%
30-Jun-2024 06:00Overcast Clouds21°C2 mph, E99%10000m1016hPa64%
30-Jun-2024 09:00Overcast Clouds25°C4 mph, NW100%10000m1014hPa48%
30-Jun-2024 12:00Light Rain24°C4 mph, W96%10000m1012hPa53%